sensor_id;sensor_type;location;lat;lon;timestamp;P1;durP1;ratioP1;P2;durP2;ratioP2
12120;SDS011;6124;59.460;17.908;2024-03-08T00:01:52;5.70;;;2.60;;
12120;SDS011;6124;59.460;17.908;2024-03-08T00:04:19;3.80;;;2.40;;
12120;SDS011;6124;59.460;17.908;2024-03-08T00:06:46;4.23;;;2.30;;
12120;SDS011;6124;59.460;17.908;2024-03-08T00:09:15;4.07;;;2.40;;
12120;SDS011;6124;59.460;17.908;2024-03-08T00:11:43;4.70;;;2.80;;
12120;SDS011;6124;59.460;17.908;2024-03-08T00:14:10;3.40;;;2.37;;
12120;SDS011;6124;59.460;17.908;2024-03-08T00:16:38;6.30;;;2.37;;
12120;SDS011;6124;59.460;17.908;2024-03-08T00:19:07;3.97;;;2.20;;
12120;SDS011;6124;59.460;17.908;2024-03-08T00:21:34;4.93;;;2.47;;
12120;SDS011;6124;59.460;17.908;2024-03-08T00:24:02;2.93;;;2.23;;
12120;SDS011;6124;59.460;17.908;2024-03-08T00:26:29;5.50;;;2.73;;
12120;SDS011;6124;59.460;17.908;2024-03-08T00:28:56;5.77;;;2.20;;
12120;SDS011;6124;59.460;17.908;2024-03-08T00:31:23;5.50;;;2.40;;
12120;SDS011;6124;59.460;17.908;2024-03-08T00:33:52;3.50;;;2.20;;
12120;SDS011;6124;59.460;17.908;2024-03-08T00:36:19;3.10;;;2.03;;
12120;SDS011;6124;59.460;17.908;2024-03-08T00:38:47;4.40;;;2.10;;
12120;SDS011;6124;59.460;17.908;2024-03-08T00:41:14;3.83;;;2.00;;
12120;SDS011;6124;59.460;17.908;2024-03-08T00:43:41;5.37;;;2.37;;
12120;SDS011;6124;59.460;17.908;2024-03-08T00:46:08;4.37;;;2.40;;
12120;SDS011;6124;59.460;17.908;2024-03-08T00:48:36;4.13;;;2.00;;
12120;SDS011;6124;59.460;17.908;2024-03-08T00:51:04;4.03;;;2.43;;
12120;SDS011;6124;59.460;17.908;2024-03-08T00:53:32;4.30;;;2.50;;
12120;SDS011;6124;59.460;17.908;2024-03-08T00:55:59;6.03;;;2.10;;
12120;SDS011;6124;59.460;17.908;2024-03-08T00:58:26;4.63;;;2.40;;
12120;SDS011;6124;59.460;17.908;2024-03-08T01:00:54;5.57;;;2.60;;
12120;SDS011;6124;59.460;17.908;2024-03-08T01:03:22;3.53;;;2.50;;
12120;SDS011;6124;59.460;17.908;2024-03-08T01:05:49;6.53;;;2.10;;
12120;SDS011;6124;59.460;17.908;2024-03-08T01:08:18;5.27;;;2.10;;
12120;SDS011;6124;59.460;17.908;2024-03-08T01:10:45;6.27;;;2.33;;
12120;SDS011;6124;59.460;17.908;2024-03-08T01:13:12;3.63;;;2.17;;
12120;SDS011;6124;59.460;17.908;2024-03-08T01:15:39;5.23;;;2.70;;
12120;SDS011;6124;59.460;17.908;2024-03-08T01:18:07;3.87;;;2.20;;
12120;SDS011;6124;59.460;17.908;2024-03-08T01:20:35;3.73;;;2.20;;
12120;SDS011;6124;59.460;17.908;2024-03-08T01:23:02;5.50;;;2.33;;
12120;SDS011;6124;59.460;17.908;2024-03-08T01:25:33;3.83;;;2.23;;
12120;SDS011;6124;59.460;17.908;2024-03-08T01:28:00;4.87;;;2.20;;
12120;SDS011;6124;59.460;17.908;2024-03-08T01:30:28;4.83;;;2.50;;
12120;SDS011;6124;59.460;17.908;2024-03-08T01:32:57;3.33;;;2.17;;
12120;SDS011;6124;59.460;17.908;2024-03-08T01:35:25;3.00;;;2.17;;
12120;SDS011;6124;59.460;17.908;2024-03-08T01:37:52;6.57;;;2.10;;
12120;SDS011;6124;59.460;17.908;2024-03-08T01:40:19;3.83;;;2.10;;
12120;SDS011;6124;59.460;17.908;2024-03-08T01:42:49;2.73;;;1.90;;
12120;SDS011;6124;59.460;17.908;2024-03-08T01:45:16;4.63;;;2.10;;
12120;SDS011;6124;59.460;17.908;2024-03-08T01:47:43;5.33;;;2.73;;
12120;SDS011;6124;59.460;17.908;2024-03-08T01:50:13;2.60;;;1.80;;
12120;SDS011;6124;59.460;17.908;2024-03-08T01:52:41;3.23;;;2.20;;
12120;SDS011;6124;59.460;17.908;2024-03-08T01:55:08;5.43;;;2.27;;
12120;SDS011;6124;59.460;17.908;2024-03-08T01:57:39;5.40;;;2.50;;
12120;SDS011;6124;59.460;17.908;2024-03-08T02:00:08;3.63;;;2.20;;
12120;SDS011;6124;59.460;17.908;2024-03-08T02:02:36;3.63;;;2.50;;
12120;SDS011;6124;59.460;17.908;2024-03-08T02:05:05;4.13;;;2.20;;
12120;SDS011;6124;59.460;17.908;2024-03-08T02:07:33;3.63;;;2.20;;
12120;SDS011;6124;59.460;17.908;2024-03-08T02:10:01;3.20;;;2.30;;
12120;SDS011;6124;59.460;17.908;2024-03-08T02:12:28;3.60;;;2.30;;
12120;SDS011;6124;59.460;17.908;2024-03-08T02:14:55;4.17;;;2.10;;
12120;SDS011;6124;59.460;17.908;2024-03-08T02:17:24;3.33;;;2.27;;
12120;SDS011;6124;59.460;17.908;2024-03-08T02:19:51;6.33;;;2.30;;
12120;SDS011;6124;59.460;17.908;2024-03-08T02:22:20;3.37;;;2.20;;
12120;SDS011;6124;59.460;17.908;2024-03-08T02:24:47;3.57;;;2.10;;
12120;SDS011;6124;59.460;17.908;2024-03-08T02:27:15;3.23;;;2.13;;
12120;SDS011;6124;59.460;17.908;2024-03-08T02:29:42;4.13;;;2.20;;
12120;SDS011;6124;59.460;17.908;2024-03-08T02:32:09;3.43;;;2.10;;
12120;SDS011;6124;59.460;17.908;2024-03-08T02:34:37;3.87;;;2.10;;
12120;SDS011;6124;59.460;17.908;2024-03-08T02:37:04;3.53;;;2.10;;
12120;SDS011;6124;59.460;17.908;2024-03-08T02:39:33;3.70;;;2.13;;
12120;SDS011;6124;59.460;17.908;2024-03-08T02:42:00;4.53;;;2.40;;
12120;SDS011;6124;59.460;17.908;2024-03-08T02:44:28;4.33;;;2.07;;
12120;SDS011;6124;59.460;17.908;2024-03-08T02:46:55;4.67;;;2.20;;
12120;SDS011;6124;59.460;17.908;2024-03-08T02:49:22;5.13;;;2.40;;
12120;SDS011;6124;59.460;17.908;2024-03-08T02:51:49;4.03;;;2.47;;
12120;SDS011;6124;59.460;17.908;2024-03-08T02:54:16;5.33;;;2.27;;
12120;SDS011;6124;59.460;17.908;2024-03-08T02:56:45;4.13;;;2.03;;
12120;SDS011;6124;59.460;17.908;2024-03-08T02:59:15;3.17;;;2.30;;
12120;SDS011;6124;59.460;17.908;2024-03-08T03:01:42;3.27;;;1.80;;
12120;SDS011;6124;59.460;17.908;2024-03-08T03:04:10;3.47;;;2.23;;
12120;SDS011;6124;59.460;17.908;2024-03-08T03:06:37;3.83;;;1.90;;
12120;SDS011;6124;59.460;17.908;2024-03-08T03:09:04;4.07;;;1.90;;
12120;SDS011;6124;59.460;17.908;2024-03-08T03:11:32;3.73;;;2.10;;
12120;SDS011;6124;59.460;17.908;2024-03-08T03:14:00;3.57;;;2.00;;
12120;SDS011;6124;59.460;17.908;2024-03-08T03:16:28;4.13;;;2.30;;
12120;SDS011;6124;59.460;17.908;2024-03-08T03:18:55;3.70;;;2.27;;
12120;SDS011;6124;59.460;17.908;2024-03-08T03:21:24;4.13;;;2.20;;
12120;SDS011;6124;59.460;17.908;2024-03-08T03:23:51;2.87;;;2.10;;
12120;SDS011;6124;59.460;17.908;2024-03-08T03:26:18;2.47;;;1.80;;
12120;SDS011;6124;59.460;17.908;2024-03-08T03:28:47;4.13;;;2.40;;
12120;SDS011;6124;59.460;17.908;2024-03-08T03:31:15;3.33;;;2.10;;
12120;SDS011;6124;59.460;17.908;2024-03-08T03:33:43;4.53;;;2.17;;
12120;SDS011;6124;59.460;17.908;2024-03-08T03:36:12;3.50;;;2.30;;
12120;SDS011;6124;59.460;17.908;2024-03-08T03:38:39;3.47;;;2.20;;
12120;SDS011;6124;59.460;17.908;2024-03-08T03:41:06;5.10;;;2.43;;
12120;SDS011;6124;59.460;17.908;2024-03-08T03:43:35;4.50;;;2.40;;
12120;SDS011;6124;59.460;17.908;2024-03-08T03:46:05;3.10;;;2.03;;
12120;SDS011;6124;59.460;17.908;2024-03-08T03:48:33;5.53;;;2.10;;
12120;SDS011;6124;59.460;17.908;2024-03-08T03:51:01;4.07;;;2.27;;
12120;SDS011;6124;59.460;17.908;2024-03-08T03:53:29;4.43;;;2.60;;
12120;SDS011;6124;59.460;17.908;2024-03-08T03:55:56;4.87;;;2.17;;
12120;SDS011;6124;59.460;17.908;2024-03-08T03:58:24;3.07;;;2.10;;
12120;SDS011;6124;59.460;17.908;2024-03-08T04:00:52;4.13;;;2.60;;
12120;SDS011;6124;59.460;17.908;2024-03-08T04:03:19;3.70;;;2.20;;
12120;SDS011;6124;59.460;17.908;2024-03-08T04:05:48;3.47;;;2.07;;
12120;SDS011;6124;59.460;17.908;2024-03-08T04:08:16;6.23;;;3.00;;
12120;SDS011;6124;59.460;17.908;2024-03-08T04:10:43;3.37;;;2.30;;
12120;SDS011;6124;59.460;17.908;2024-03-08T04:13:10;4.20;;;2.53;;
12120;SDS011;6124;59.460;17.908;2024-03-08T04:15:37;5.47;;;2.50;;
12120;SDS011;6124;59.460;17.908;2024-03-08T04:18:04;4.47;;;2.60;;
12120;SDS011;6124;59.460;17.908;2024-03-08T04:20:32;6.00;;;2.67;;
12120;SDS011;6124;59.460;17.908;2024-03-08T04:23:02;4.40;;;2.53;;
12120;SDS011;6124;59.460;17.908;2024-03-08T04:25:29;3.90;;;2.37;;
12120;SDS011;6124;59.460;17.908;2024-03-08T04:27:57;4.93;;;2.97;;
12120;SDS011;6124;59.460;17.908;2024-03-08T04:30:24;4.33;;;2.70;;
12120;SDS011;6124;59.460;17.908;2024-03-08T04:32:53;4.93;;;2.80;;
12120;SDS011;6124;59.460;17.908;2024-03-08T04:35:20;4.30;;;2.30;;
12120;SDS011;6124;59.460;17.908;2024-03-08T04:37:47;4.37;;;2.30;;
12120;SDS011;6124;59.460;17.908;2024-03-08T04:40:16;6.10;;;2.83;;
12120;SDS011;6124;59.460;17.908;2024-03-08T04:42:43;6.03;;;2.63;;
12120;SDS011;6124;59.460;17.908;2024-03-08T04:45:11;5.00;;;2.60;;
12120;SDS011;6124;59.460;17.908;2024-03-08T04:47:39;3.60;;;2.40;;
12120;SDS011;6124;59.460;17.908;2024-03-08T04:50:06;6.67;;;2.70;;
12120;SDS011;6124;59.460;17.908;2024-03-08T04:52:34;3.97;;;2.60;;
12120;SDS011;6124;59.460;17.908;2024-03-08T04:55:01;7.13;;;2.77;;
12120;SDS011;6124;59.460;17.908;2024-03-08T04:57:31;5.53;;;2.93;;
12120;SDS011;6124;59.460;17.908;2024-03-08T04:59:58;5.87;;;2.53;;
12120;SDS011;6124;59.460;17.908;2024-03-08T05:02:26;5.17;;;2.60;;
12120;SDS011;6124;59.460;17.908;2024-03-08T05:04:53;3.90;;;2.73;;
12120;SDS011;6124;59.460;17.908;2024-03-08T05:07:20;5.50;;;3.00;;
12120;SDS011;6124;59.460;17.908;2024-03-08T05:09:47;5.50;;;3.00;;
12120;SDS011;6124;59.460;17.908;2024-03-08T05:12:16;4.97;;;2.73;;
12120;SDS011;6124;59.460;17.908;2024-03-08T05:14:45;4.93;;;2.90;;
12120;SDS011;6124;59.460;17.908;2024-03-08T05:17:14;3.60;;;2.40;;
12120;SDS011;6124;59.460;17.908;2024-03-08T05:19:42;4.60;;;2.90;;
12120;SDS011;6124;59.460;17.908;2024-03-08T05:22:09;6.57;;;2.80;;
12120;SDS011;6124;59.460;17.908;2024-03-08T05:24:37;4.50;;;2.70;;
12120;SDS011;6124;59.460;17.908;2024-03-08T05:27:04;4.33;;;2.40;;
12120;SDS011;6124;59.460;17.908;2024-03-08T05:29:31;5.40;;;2.67;;
12120;SDS011;6124;59.460;17.908;2024-03-08T05:32:00;6.00;;;3.50;;
12120;SDS011;6124;59.460;17.908;2024-03-08T05:34:29;5.07;;;3.20;;
12120;SDS011;6124;59.460;17.908;2024-03-08T05:36:56;6.73;;;3.37;;
12120;SDS011;6124;59.460;17.908;2024-03-08T05:39:23;5.57;;;2.80;;
12120;SDS011;6124;59.460;17.908;2024-03-08T05:41:51;5.73;;;3.17;;
12120;SDS011;6124;59.460;17.908;2024-03-08T05:44:20;4.10;;;2.70;;
12120;SDS011;6124;59.460;17.908;2024-03-08T05:46:47;5.33;;;2.77;;
12120;SDS011;6124;59.460;17.908;2024-03-08T05:49:17;6.20;;;3.23;;
12120;SDS011;6124;59.460;17.908;2024-03-08T05:51:44;8.60;;;3.43;;
12120;SDS011;6124;59.460;17.908;2024-03-08T05:54:12;8.30;;;3.50;;
12120;SDS011;6124;59.460;17.908;2024-03-08T05:56:40;6.07;;;3.20;;
12120;SDS011;6124;59.460;17.908;2024-03-08T05:59:08;6.13;;;3.17;;
12120;SDS011;6124;59.460;17.908;2024-03-08T06:01:36;7.50;;;3.63;;
12120;SDS011;6124;59.460;17.908;2024-03-08T06:04:05;5.57;;;3.30;;
12120;SDS011;6124;59.460;17.908;2024-03-08T06:06:34;7.00;;;3.00;;
12120;SDS011;6124;59.460;17.908;2024-03-08T06:09:02;5.13;;;2.87;;
12120;SDS011;6124;59.460;17.908;2024-03-08T06:11:39;5.17;;;3.03;;
12120;SDS011;6124;59.460;17.908;2024-03-08T06:14:07;5.73;;;3.07;;
12120;SDS011;6124;59.460;17.908;2024-03-08T06:16:34;6.83;;;3.60;;
12120;SDS011;6124;59.460;17.908;2024-03-08T06:19:03;7.53;;;3.60;;
12120;SDS011;6124;59.460;17.908;2024-03-08T06:21:30;6.47;;;3.20;;
12120;SDS011;6124;59.460;17.908;2024-03-08T06:23:59;6.63;;;3.57;;
12120;SDS011;6124;59.460;17.908;2024-03-08T06:26:26;8.33;;;3.67;;
12120;SDS011;6124;59.460;17.908;2024-03-08T06:28:54;8.70;;;4.50;;
12120;SDS011;6124;59.460;17.908;2024-03-08T06:31:21;12.60;;;4.60;;
12120;SDS011;6124;59.460;17.908;2024-03-08T06:33:48;8.17;;;4.57;;
12120;SDS011;6124;59.460;17.908;2024-03-08T06:36:16;9.00;;;4.30;;
12120;SDS011;6124;59.460;17.908;2024-03-08T06:38:44;9.70;;;3.87;;
12120;SDS011;6124;59.460;17.908;2024-03-08T06:41:12;8.13;;;4.30;;
12120;SDS011;6124;59.460;17.908;2024-03-08T06:43:41;11.13;;;4.40;;
12120;SDS011;6124;59.460;17.908;2024-03-08T06:46:08;7.87;;;3.60;;
12120;SDS011;6124;59.460;17.908;2024-03-08T06:48:37;6.83;;;3.80;;
12120;SDS011;6124;59.460;17.908;2024-03-08T06:51:05;8.50;;;4.13;;
12120;SDS011;6124;59.460;17.908;2024-03-08T06:53:32;9.50;;;4.47;;
12120;SDS011;6124;59.460;17.908;2024-03-08T06:56:00;7.83;;;4.10;;
12120;SDS011;6124;59.460;17.908;2024-03-08T06:58:29;10.10;;;4.40;;
12120;SDS011;6124;59.460;17.908;2024-03-08T07:00:57;11.63;;;4.73;;
12120;SDS011;6124;59.460;17.908;2024-03-08T07:03:25;11.00;;;4.53;;
12120;SDS011;6124;59.460;17.908;2024-03-08T07:05:54;6.40;;;3.67;;
12120;SDS011;6124;59.460;17.908;2024-03-08T07:08:23;11.63;;;4.67;;
12120;SDS011;6124;59.460;17.908;2024-03-08T07:10:51;9.13;;;4.10;;
12120;SDS011;6124;59.460;17.908;2024-03-08T07:13:19;8.27;;;3.87;;
12120;SDS011;6124;59.460;17.908;2024-03-08T07:15:47;9.93;;;4.40;;
12120;SDS011;6124;59.460;17.908;2024-03-08T07:18:15;6.87;;;4.10;;
12120;SDS011;6124;59.460;17.908;2024-03-08T07:20:42;8.73;;;3.60;;
12120;SDS011;6124;59.460;17.908;2024-03-08T07:23:10;7.03;;;3.93;;
12120;SDS011;6124;59.460;17.908;2024-03-08T07:25:57;5.90;;;3.30;;
12120;SDS011;6124;59.460;17.908;2024-03-08T07:28:26;10.73;;;3.70;;
12120;SDS011;6124;59.460;17.908;2024-03-08T07:30:56;7.83;;;4.10;;
12120;SDS011;6124;59.460;17.908;2024-03-08T07:33:37;8.93;;;3.77;;
12120;SDS011;6124;59.460;17.908;2024-03-08T07:36:04;6.93;;;3.77;;
12120;SDS011;6124;59.460;17.908;2024-03-08T07:38:32;8.20;;;4.10;;
12120;SDS011;6124;59.460;17.908;2024-03-08T07:40:59;8.17;;;3.47;;
12120;SDS011;6124;59.460;17.908;2024-03-08T07:43:26;7.27;;;3.80;;
12120;SDS011;6124;59.460;17.908;2024-03-08T07:45:54;5.40;;;3.50;;
12120;SDS011;6124;59.460;17.908;2024-03-08T07:48:22;6.23;;;4.00;;
12120;SDS011;6124;59.460;17.908;2024-03-08T07:50:50;10.30;;;4.00;;
12120;SDS011;6124;59.460;17.908;2024-03-08T07:53:18;9.53;;;3.93;;
12120;SDS011;6124;59.460;17.908;2024-03-08T07:55:45;9.20;;;3.70;;
12120;SDS011;6124;59.460;17.908;2024-03-08T07:58:12;5.73;;;3.63;;
12120;SDS011;6124;59.460;17.908;2024-03-08T08:00:39;11.40;;;3.70;;
12120;SDS011;6124;59.460;17.908;2024-03-08T08:03:08;7.60;;;3.60;;
12120;SDS011;6124;59.460;17.908;2024-03-08T08:05:36;6.73;;;3.30;;
12120;SDS011;6124;59.460;17.908;2024-03-08T08:08:04;6.27;;;3.37;;
12120;SDS011;6124;59.460;17.908;2024-03-08T08:10:32;5.83;;;3.70;;
12120;SDS011;6124;59.460;17.908;2024-03-08T08:12:59;5.93;;;3.60;;
12120;SDS011;6124;59.460;17.908;2024-03-08T08:15:26;7.87;;;3.73;;
12120;SDS011;6124;59.460;17.908;2024-03-08T08:17:53;12.83;;;4.07;;
12120;SDS011;6124;59.460;17.908;2024-03-08T08:20:21;7.63;;;3.87;;
12120;SDS011;6124;59.460;17.908;2024-03-08T08:22:49;8.43;;;3.77;;
12120;SDS011;6124;59.460;17.908;2024-03-08T08:25:16;7.47;;;3.70;;
12120;SDS011;6124;59.460;17.908;2024-03-08T08:27:45;8.80;;;4.00;;
12120;SDS011;6124;59.460;17.908;2024-03-08T08:30:13;4.57;;;2.97;;
12120;SDS011;6124;59.460;17.908;2024-03-08T08:32:40;6.90;;;3.47;;
12120;SDS011;6124;59.460;17.908;2024-03-08T08:35:08;5.40;;;3.13;;
12120;SDS011;6124;59.460;17.908;2024-03-08T08:37:38;6.43;;;3.80;;
12120;SDS011;6124;59.460;17.908;2024-03-08T08:40:07;8.03;;;3.30;;
12120;SDS011;6124;59.460;17.908;2024-03-08T08:42:39;6.17;;;3.30;;
12120;SDS011;6124;59.460;17.908;2024-03-08T08:45:06;8.37;;;4.10;;
12120;SDS011;6124;59.460;17.908;2024-03-08T08:47:34;6.00;;;3.90;;
12120;SDS011;6124;59.460;17.908;2024-03-08T08:50:02;6.97;;;3.47;;
12120;SDS011;6124;59.460;17.908;2024-03-08T08:52:29;5.83;;;3.40;;
12120;SDS011;6124;59.460;17.908;2024-03-08T08:54:56;6.37;;;3.53;;
12120;SDS011;6124;59.460;17.908;2024-03-08T08:57:25;9.87;;;3.60;;
12120;SDS011;6124;59.460;17.908;2024-03-08T08:59:53;5.27;;;3.37;;
12120;SDS011;6124;59.460;17.908;2024-03-08T09:02:22;5.47;;;3.57;;
12120;SDS011;6124;59.460;17.908;2024-03-08T09:04:50;6.77;;;3.47;;
12120;SDS011;6124;59.460;17.908;2024-03-08T09:07:18;8.27;;;3.33;;
12120;SDS011;6124;59.460;17.908;2024-03-08T09:09:45;8.67;;;4.03;;
12120;SDS011;6124;59.460;17.908;2024-03-08T09:12:13;7.97;;;3.37;;
12120;SDS011;6124;59.460;17.908;2024-03-08T09:14:41;7.37;;;3.40;;
12120;SDS011;6124;59.460;17.908;2024-03-08T09:17:09;8.73;;;3.63;;
12120;SDS011;6124;59.460;17.908;2024-03-08T09:19:36;8.03;;;3.10;;
12120;SDS011;6124;59.460;17.908;2024-03-08T09:22:04;6.07;;;3.30;;
12120;SDS011;6124;59.460;17.908;2024-03-08T09:24:32;6.50;;;3.17;;
12120;SDS011;6124;59.460;17.908;2024-03-08T09:26:59;6.20;;;3.00;;
12120;SDS011;6124;59.460;17.908;2024-03-08T09:29:26;9.20;;;3.67;;
12120;SDS011;6124;59.460;17.908;2024-03-08T09:31:55;7.77;;;3.60;;
12120;SDS011;6124;59.460;17.908;2024-03-08T09:34:22;6.37;;;3.00;;
12120;SDS011;6124;59.460;17.908;2024-03-08T09:36:49;4.03;;;2.63;;
12120;SDS011;6124;59.460;17.908;2024-03-08T09:39:17;4.50;;;3.00;;
12120;SDS011;6124;59.460;17.908;2024-03-08T09:41:45;6.77;;;3.23;;
12120;SDS011;6124;59.460;17.908;2024-03-08T09:44:13;7.33;;;3.10;;
12120;SDS011;6124;59.460;17.908;2024-03-08T09:46:41;4.30;;;2.80;;
12120;SDS011;6124;59.460;17.908;2024-03-08T09:49:10;6.27;;;3.17;;
12120;SDS011;6124;59.460;17.908;2024-03-08T09:51:37;5.47;;;2.80;;
12120;SDS011;6124;59.460;17.908;2024-03-08T09:54:06;6.97;;;2.90;;
12120;SDS011;6124;59.460;17.908;2024-03-08T09:56:34;5.50;;;3.07;;
12120;SDS011;6124;59.460;17.908;2024-03-08T09:59:01;3.90;;;2.60;;
12120;SDS011;6124;59.460;17.908;2024-03-08T10:02:05;7.93;;;3.20;;
12120;SDS011;6124;59.460;17.908;2024-03-08T10:04:35;8.50;;;2.83;;
12120;SDS011;6124;59.460;17.908;2024-03-08T10:07:02;6.03;;;2.47;;
12120;SDS011;6124;59.460;17.908;2024-03-08T10:09:32;5.93;;;2.50;;
12120;SDS011;6124;59.460;17.908;2024-03-08T10:12:00;4.60;;;2.40;;
12120;SDS011;6124;59.460;17.908;2024-03-08T10:14:28;7.20;;;2.87;;
12120;SDS011;6124;59.460;17.908;2024-03-08T10:16:56;7.43;;;2.90;;
12120;SDS011;6124;59.460;17.908;2024-03-08T10:19:25;6.83;;;3.20;;
12120;SDS011;6124;59.460;17.908;2024-03-08T10:21:54;6.77;;;2.57;;
12120;SDS011;6124;59.460;17.908;2024-03-08T10:24:22;10.03;;;3.50;;
12120;SDS011;6124;59.460;17.908;2024-03-08T10:26:51;5.57;;;3.10;;
12120;SDS011;6124;59.460;17.908;2024-03-08T10:29:18;6.07;;;2.97;;
12120;SDS011;6124;59.460;17.908;2024-03-08T10:31:45;5.43;;;3.00;;
12120;SDS011;6124;59.460;17.908;2024-03-08T10:34:12;5.87;;;2.57;;
12120;SDS011;6124;59.460;17.908;2024-03-08T10:36:40;6.87;;;2.50;;
12120;SDS011;6124;59.460;17.908;2024-03-08T10:39:10;5.93;;;2.63;;
12120;SDS011;6124;59.460;17.908;2024-03-08T10:41:41;9.07;;;2.60;;
12120;SDS011;6124;59.460;17.908;2024-03-08T10:44:14;9.03;;;3.03;;
12120;SDS011;6124;59.460;17.908;2024-03-08T10:46:49;4.80;;;2.43;;
12120;SDS011;6124;59.460;17.908;2024-03-08T10:49:21;4.90;;;2.43;;
12120;SDS011;6124;59.460;17.908;2024-03-08T10:51:50;3.83;;;2.60;;
12120;SDS011;6124;59.460;17.908;2024-03-08T10:54:19;7.83;;;2.70;;
12120;SDS011;6124;59.460;17.908;2024-03-08T10:56:47;9.03;;;3.13;;
12120;SDS011;6124;59.460;17.908;2024-03-08T10:59:15;3.87;;;2.57;;
12120;SDS011;6124;59.460;17.908;2024-03-08T11:01:44;4.60;;;2.50;;
12120;SDS011;6124;59.460;17.908;2024-03-08T11:04:11;8.50;;;2.90;;
12120;SDS011;6124;59.460;17.908;2024-03-08T11:06:41;5.53;;;2.70;;
12120;SDS011;6124;59.460;17.908;2024-03-08T11:09:11;10.97;;;2.93;;
12120;SDS011;6124;59.460;17.908;2024-03-08T11:14:44;8.47;;;2.50;;
12120;SDS011;6124;59.460;17.908;2024-03-08T11:17:14;4.03;;;2.43;;
12120;SDS011;6124;59.460;17.908;2024-03-08T11:19:45;5.77;;;3.03;;
12120;SDS011;6124;59.460;17.908;2024-03-08T11:22:20;4.50;;;2.40;;
12120;SDS011;6124;59.460;17.908;2024-03-08T11:24:48;5.77;;;2.80;;
12120;SDS011;6124;59.460;17.908;2024-03-08T11:27:15;6.30;;;2.93;;
12120;SDS011;6124;59.460;17.908;2024-03-08T11:29:44;8.20;;;3.27;;
12120;SDS011;6124;59.460;17.908;2024-03-08T11:32:12;6.10;;;3.00;;
12120;SDS011;6124;59.460;17.908;2024-03-08T11:34:40;5.83;;;2.80;;
12120;SDS011;6124;59.460;17.908;2024-03-08T11:37:12;7.13;;;3.07;;
12120;SDS011;6124;59.460;17.908;2024-03-08T11:39:40;5.20;;;2.67;;
12120;SDS011;6124;59.460;17.908;2024-03-08T11:42:07;5.50;;;2.80;;
12120;SDS011;6124;59.460;17.908;2024-03-08T11:44:36;3.43;;;2.03;;
12120;SDS011;6124;59.460;17.908;2024-03-08T11:47:09;8.63;;;2.53;;
12120;SDS011;6124;59.460;17.908;2024-03-08T11:49:36;7.33;;;2.93;;
12120;SDS011;6124;59.460;17.908;2024-03-08T11:52:04;6.73;;;2.33;;
12120;SDS011;6124;59.460;17.908;2024-03-08T11:54:32;3.90;;;2.33;;
12120;SDS011;6124;59.460;17.908;2024-03-08T11:57:01;5.57;;;2.80;;
12120;SDS011;6124;59.460;17.908;2024-03-08T11:59:28;3.40;;;2.23;;
12120;SDS011;6124;59.460;17.908;2024-03-08T12:01:58;5.43;;;2.27;;
12120;SDS011;6124;59.460;17.908;2024-03-08T12:04:28;10.47;;;3.03;;
12120;SDS011;6124;59.460;17.908;2024-03-08T12:06:56;11.37;;;2.90;;
12120;SDS011;6124;59.460;17.908;2024-03-08T12:09:23;7.10;;;2.90;;
12120;SDS011;6124;59.460;17.908;2024-03-08T12:11:50;7.83;;;3.07;;
12120;SDS011;6124;59.460;17.908;2024-03-08T12:14:17;7.17;;;2.80;;
12120;SDS011;6124;59.460;17.908;2024-03-08T12:16:45;6.87;;;2.60;;
12120;SDS011;6124;59.460;17.908;2024-03-08T12:19:13;9.77;;;2.73;;
12120;SDS011;6124;59.460;17.908;2024-03-08T12:21:43;4.30;;;2.70;;
12120;SDS011;6124;59.460;17.908;2024-03-08T12:24:14;4.67;;;2.30;;
12120;SDS011;6124;59.460;17.908;2024-03-08T12:26:44;5.67;;;2.17;;
12120;SDS011;6124;59.460;17.908;2024-03-08T12:29:17;10.87;;;2.70;;
12120;SDS011;6124;59.460;17.908;2024-03-08T12:31:45;5.07;;;2.30;;
12120;SDS011;6124;59.460;17.908;2024-03-08T12:34:12;6.37;;;2.40;;
12120;SDS011;6124;59.460;17.908;2024-03-08T12:36:48;6.70;;;2.10;;
12120;SDS011;6124;59.460;17.908;2024-03-08T12:39:17;7.93;;;2.67;;
12120;SDS011;6124;59.460;17.908;2024-03-08T12:41:47;6.20;;;2.57;;
12120;SDS011;6124;59.460;17.908;2024-03-08T12:44:16;4.70;;;2.10;;
12120;SDS011;6124;59.460;17.908;2024-03-08T12:46:46;3.87;;;2.37;;
12120;SDS011;6124;59.460;17.908;2024-03-08T12:49:14;6.40;;;1.87;;
12120;SDS011;6124;59.460;17.908;2024-03-08T12:51:42;4.80;;;2.23;;
12120;SDS011;6124;59.460;17.908;2024-03-08T12:54:11;7.53;;;2.40;;
12120;SDS011;6124;59.460;17.908;2024-03-08T12:56:39;6.43;;;2.40;;
12120;SDS011;6124;59.460;17.908;2024-03-08T12:59:06;3.77;;;2.00;;
12120;SDS011;6124;59.460;17.908;2024-03-08T13:01:35;4.47;;;2.30;;
12120;SDS011;6124;59.460;17.908;2024-03-08T13:04:03;5.37;;;2.30;;
12120;SDS011;6124;59.460;17.908;2024-03-08T13:06:31;8.00;;;2.70;;
12120;SDS011;6124;59.460;17.908;2024-03-08T13:08:59;6.47;;;2.40;;
12120;SDS011;6124;59.460;17.908;2024-03-08T13:11:31;7.83;;;2.40;;
12120;SDS011;6124;59.460;17.908;2024-03-08T13:14:02;5.97;;;2.50;;
12120;SDS011;6124;59.460;17.908;2024-03-08T13:16:30;9.00;;;2.83;;
12120;SDS011;6124;59.460;17.908;2024-03-08T13:18:58;5.00;;;2.10;;
12120;SDS011;6124;59.460;17.908;2024-03-08T13:21:25;6.00;;;2.23;;
12120;SDS011;6124;59.460;17.908;2024-03-08T13:23:52;7.00;;;2.50;;
12120;SDS011;6124;59.460;17.908;2024-03-08T13:26:20;4.43;;;2.30;;
12120;SDS011;6124;59.460;17.908;2024-03-08T13:28:48;4.20;;;2.40;;
12120;SDS011;6124;59.460;17.908;2024-03-08T13:31:18;6.27;;;2.27;;
12120;SDS011;6124;59.460;17.908;2024-03-08T13:33:45;2.37;;;1.80;;
12120;SDS011;6124;59.460;17.908;2024-03-08T13:36:13;8.47;;;2.40;;
12120;SDS011;6124;59.460;17.908;2024-03-08T13:38:41;4.03;;;2.63;;
12120;SDS011;6124;59.460;17.908;2024-03-08T13:41:09;5.23;;;2.20;;
12120;SDS011;6124;59.460;17.908;2024-03-08T13:43:39;6.20;;;2.33;;
12120;SDS011;6124;59.460;17.908;2024-03-08T13:46:08;4.90;;;2.53;;
12120;SDS011;6124;59.460;17.908;2024-03-08T13:48:36;8.33;;;2.80;;
12120;SDS011;6124;59.460;17.908;2024-03-08T13:51:03;7.63;;;2.50;;
12120;SDS011;6124;59.460;17.908;2024-03-08T13:53:32;5.30;;;2.33;;
12120;SDS011;6124;59.460;17.908;2024-03-08T13:55:59;4.33;;;2.47;;
12120;SDS011;6124;59.460;17.908;2024-03-08T13:58:27;5.13;;;2.30;;
12120;SDS011;6124;59.460;17.908;2024-03-08T14:00:54;6.37;;;2.30;;
12120;SDS011;6124;59.460;17.908;2024-03-08T14:03:23;5.43;;;2.63;;
12120;SDS011;6124;59.460;17.908;2024-03-08T14:05:50;13.73;;;3.20;;
12120;SDS011;6124;59.460;17.908;2024-03-08T14:08:20;9.70;;;2.47;;
12120;SDS011;6124;59.460;17.908;2024-03-08T14:10:47;8.90;;;2.77;;
12120;SDS011;6124;59.460;17.908;2024-03-08T14:13:16;5.90;;;2.83;;
12120;SDS011;6124;59.460;17.908;2024-03-08T14:15:44;5.10;;;2.30;;
12120;SDS011;6124;59.460;17.908;2024-03-08T14:18:11;8.80;;;2.50;;
12120;SDS011;6124;59.460;17.908;2024-03-08T14:20:40;7.73;;;2.63;;
12120;SDS011;6124;59.460;17.908;2024-03-08T14:23:09;11.73;;;3.57;;
12120;SDS011;6124;59.460;17.908;2024-03-08T14:25:37;4.87;;;2.50;;
12120;SDS011;6124;59.460;17.908;2024-03-08T14:28:05;5.63;;;2.30;;
12120;SDS011;6124;59.460;17.908;2024-03-08T14:30:33;5.63;;;2.50;;
12120;SDS011;6124;59.460;17.908;2024-03-08T14:33:03;7.97;;;2.73;;
12120;SDS011;6124;59.460;17.908;2024-03-08T14:35:31;6.33;;;2.93;;
12120;SDS011;6124;59.460;17.908;2024-03-08T14:38:00;7.20;;;2.90;;
12120;SDS011;6124;59.460;17.908;2024-03-08T14:40:28;7.37;;;3.13;;
12120;SDS011;6124;59.460;17.908;2024-03-08T14:42:55;7.20;;;2.70;;
12120;SDS011;6124;59.460;17.908;2024-03-08T14:45:23;10.37;;;3.00;;
12120;SDS011;6124;59.460;17.908;2024-03-08T14:47:51;10.83;;;2.60;;
12120;SDS011;6124;59.460;17.908;2024-03-08T14:50:20;5.33;;;2.80;;
12120;SDS011;6124;59.460;17.908;2024-03-08T14:52:48;5.97;;;2.47;;
12120;SDS011;6124;59.460;17.908;2024-03-08T14:55:17;7.73;;;2.90;;
12120;SDS011;6124;59.460;17.908;2024-03-08T14:57:46;7.93;;;2.67;;